WetterOnline ( https://www.wetteronline.de )

Wetter aktuell Neustrelitz

Aktuelles Wetter: Feldberg (115m)

6-stündlich | Neueste Meldungen
Ortszeit Temperatur Wetter
Fr, 21.01. 13:00 1.7° C wolkenlos
Fr, 21.01. 7:00 -2.6° C wolkenlos
Fr, 21.01. 1:00 -0.7° C wolkenlos
Do, 20.01. 19:00 -2.3° C wolkenlos
Do, 20.01. 13:00 1.3° C bedeckt
Do, 20.01. 7:00 -2.0° C Schneefall
Do, 20.01. 1:00 3.1° C bewölkt
Mi, 19.01. 19:00 2.5° C bedeckt
Ortszeit Temperatur Wetter
Fr, 21.01. 18:00 1.0° C wolkig
Fr, 21.01. 17:50 1.0° C wolkig
Fr, 21.01. 17:40 0.5° C leicht bewölkt
Fr, 21.01. 17:30 0.1° C wolkenlos
Fr, 21.01. 17:20 0.1° C wolkenlos
Fr, 21.01. 17:10 0.5° C wolkenlos
Fr, 21.01. 17:00 0.6° C leicht bewölkt
Fr, 21.01. 16:30 1.0° C leicht bewölkt
Fr, 21.01. 16:00 1.7° C bedeckt
Fr, 21.01. 15:30 1.9° C bewölkt
Fr, 21.01. 15:00 2.2° C fast wolkenlos
Ortszeit Relative Feuchte Sichtweite
Fr, 21.01. 13:00 60% 60 km
Fr, 21.01. 7:00 80% 40 km
Fr, 21.01. 1:00 61% 60 km
Do, 20.01. 19:00 86% 55 km
Do, 20.01. 13:00 69% 30 km
Do, 20.01. 7:00 90% 1.1 km
Do, 20.01. 1:00 73% 30 km
Mi, 19.01. 19:00 85% 22 km
Ortszeit Relative Feuchte Sichtweite
Fr, 21.01. 18:00 75% 55 km
Fr, 21.01. 17:50 75% -
Fr, 21.01. 17:40 75% -
Fr, 21.01. 17:30 74% 55 km
Fr, 21.01. 17:20 74% -
Fr, 21.01. 17:10 71% -
Fr, 21.01. 17:00 69% 60 km
Fr, 21.01. 16:30 68% 55 km
Fr, 21.01. 16:00 64% 55 km
Fr, 21.01. 15:30 62% 60 km
Fr, 21.01. 15:00 60% 55 km
Ortszeit Niederschlagsmenge Niederschlagsart
Fr, 21.01. 13:00 0.0 l/m2 in 6 Std. -
Fr, 21.01. 7:00 0.1 l/m2 in 12 Std. -
Fr, 21.01. 1:00 0.1 l/m2 in 6 Std. Schnee
Do, 20.01. 19:00 0.9 l/m2 in 12 Std. Schnee
Do, 20.01. 13:00 0.1 l/m2 in 6 Std. Schnee, Sprühregen
Do, 20.01. 7:00 2 l/m2 in 12 Std. Schnee, Sprühregen
Do, 20.01. 1:00 0.3 l/m2 in 6 Std. Regen
Mi, 19.01. 19:00 0.0 l/m2 in 12 Std. -
Ortszeit Niederschlagsmenge Niederschlagsart
Fr, 21.01. 18:00 0.0 l/m2 in 1 Std. -
Fr, 21.01. 17:50 keine Meldung -
Fr, 21.01. 17:40 keine Meldung -
Fr, 21.01. 17:30 0.0 l/m2 in 1 Std. -
Fr, 21.01. 17:20 keine Meldung -
Fr, 21.01. 17:10 keine Meldung -
Fr, 21.01. 17:00 0.0 l/m2 in 1 Std. -
Fr, 21.01. 16:30 0.0 l/m2 in 1 Std. -
Fr, 21.01. 16:00 0.0 l/m2 in 1 Std. -
Fr, 21.01. 15:30 0.0 l/m2 in 1 Std. -
Fr, 21.01. 15:00 0.0 l/m2 in 1 Std. -
Ortszeit Stärke Spitze Richtung
km/h Bft. km/h Grad Sektor
Fr, 21.01. 13:00 24 4 43 300° NW
Fr, 21.01. 7:00 18 3 43 290° W
Fr, 21.01. 1:00 18 3 40 310° NW
Do, 20.01. 19:00 13 3 50 320° NW
Do, 20.01. 13:00 29 5 54 290° W
Do, 20.01. 7:00 33 5 65 320° NW
Do, 20.01. 1:00 31 5 52 280° W
Mi, 19.01. 19:00 28 4 52 240° SW
Ortszeit Stärke Spitze Richtung
km/h Bft. km/h Grad Sektor
Fr, 21.01. 18:00 18 3 36 280° W
Fr, 21.01. 17:50 18 3 - 280° W
Fr, 21.01. 17:40 20 4 - 280° W
Fr, 21.01. 17:30 22 4 36 280° W
Fr, 21.01. 17:20 22 4 - 280° W
Fr, 21.01. 17:10 22 4 - 280° W
Fr, 21.01. 17:00 22 4 43 280° W
Fr, 21.01. 16:30 25 4 36 280° W
Fr, 21.01. 16:00 22 4 39 280° W
Fr, 21.01. 15:30 25 4 40 290° W
Fr, 21.01. 15:00 22 4 43 300° NW
Ortszeit Untergrenze Bedeckung Gattung
total tief tief mittel hoch
Fr, 21.01. 13:00 - 0/8 0/8 - - -
Fr, 21.01. 7:00 - 0/8 0/8 - - -
Fr, 21.01. 1:00 - 0/8 0/8 - - -
Do, 20.01. 19:00 2700 m 0/8 0/8 - - -
Do, 20.01. 13:00 990 m 8/8 8/8 - - -
Do, 20.01. 7:00 150 m 6/8 6/8 - - -
Do, 20.01. 1:00 870 m 7/8 7/8 - - -
Mi, 19.01. 19:00 390 m 8/8 8/8 - - -
Ortszeit Bedeckungsgrad in Achtel und Wolkenuntergrenze
Fr, 21.01. 18:00 5(510m) 6(2700m)
Fr, 21.01. 17:50 5(510m) 6(2700m)
Fr, 21.01. 17:40 1(510m) 4(2700m)
Fr, 21.01. 17:30 keine Wolken
Fr, 21.01. 17:20 keine Wolken
Fr, 21.01. 17:10 keine Wolken
Fr, 21.01. 17:00 4(2700m)
Fr, 21.01. 16:30 4(2700m)
Fr, 21.01. 16:00 8(2700m)
Fr, 21.01. 15:30 7(2700m)
Fr, 21.01. 15:00 1(2700m)
Ortszeit Luftdruck NN (hPa) Tendenz (hPa in 3 Std.)
Fr, 21.01. 13:00 1023 + 0,1
Fr, 21.01. 7:00 1023 + 0,6
Fr, 21.01. 1:00 1021 + 1,8
Do, 20.01. 19:00 1017 + 2,7
Do, 20.01. 13:00 1013 + 1,1
Do, 20.01. 7:00 1011 + 1,6
Do, 20.01. 1:00 1009 - 0,4
Mi, 19.01. 19:00 1013 - 3,1
Ortszeit Luftdruck NN (hPa) Tendenz (hPa in 3 Std.)
Fr, 21.01. 18:00 1023 - 0,4
Fr, 21.01. 17:50 1023 keine Meldung
Fr, 21.01. 17:40 1023 keine Meldung
Fr, 21.01. 17:30 1023 - 0,5
Fr, 21.01. 17:20 1023 keine Meldung
Fr, 21.01. 17:10 1023 keine Meldung
Fr, 21.01. 17:00 1023 - 0,4
Fr, 21.01. 16:30 1023 - 0,7
Fr, 21.01. 16:00 1023 - 0,7
Fr, 21.01. 15:30 1023 - 0,9
Fr, 21.01. 15:00 1023 - 0,4
Ortszeit Schneehöhe (cm)
Fr, 21.01. 13:00 -
Fr, 21.01. 7:00 1
Fr, 21.01. 1:00 1
Do, 20.01. 19:00 1
Do, 20.01. 13:00 0
Do, 20.01. 7:00 0
Do, 20.01. 1:00 0
Mi, 19.01. 19:00 0
Ortszeit Schneehöhe (cm)
Fr, 21.01. 18:00 -
Fr, 21.01. 17:50 -
Fr, 21.01. 17:40 -
Fr, 21.01. 17:30 -
Fr, 21.01. 17:20 -
Fr, 21.01. 17:10 -
Fr, 21.01. 17:00 -
Fr, 21.01. 16:30 -
Fr, 21.01. 16:00 -
Fr, 21.01. 15:30 -
Fr, 21.01. 15:00 -
Link zu dieser Seite / Seite empfehlen

Das Wetter in ...